createdAt,value
2018-09-28T00:01:22.592Z,18.20
2018-09-28T00:03:51.020Z,18.70
2018-09-28T00:06:19.397Z,19.40
2018-09-28T00:08:47.967Z,18.77
2018-09-28T00:11:16.556Z,18.27
2018-09-28T00:13:44.954Z,21.70
2018-09-28T00:16:13.457Z,19.80
2018-09-28T00:18:41.818Z,19.90
2018-09-28T00:21:10.225Z,19.50
2018-09-28T00:23:38.626Z,21.80
2018-09-28T00:26:07.395Z,19.43
2018-09-28T00:28:35.754Z,20.00
2018-09-28T00:31:04.388Z,20.50
2018-09-28T00:33:32.792Z,19.77
2018-09-28T00:36:01.242Z,21.20
2018-09-28T00:38:29.828Z,20.60
2018-09-28T00:40:58.213Z,19.30
2018-09-28T00:43:26.619Z,23.23
2018-09-28T00:45:55.177Z,22.80
2018-09-28T00:48:23.561Z,20.67
2018-09-28T00:50:51.945Z,20.40
2018-09-28T00:53:20.484Z,24.60
2018-09-28T00:55:48.953Z,25.13
2018-09-28T00:58:17.378Z,25.90
2018-09-28T01:00:45.778Z,25.77
2018-09-28T01:03:14.164Z,24.17
2018-09-28T01:05:42.805Z,24.80
2018-09-28T01:08:11.181Z,24.10
2018-09-28T01:10:39.568Z,24.57
2018-09-28T01:13:08.137Z,23.60
2018-09-28T01:15:36.533Z,23.47
2018-09-28T01:18:04.904Z,24.00
2018-09-28T01:20:33.300Z,23.57
2018-09-28T01:23:01.697Z,23.80
2018-09-28T01:25:30.087Z,21.20
2018-09-28T01:27:58.468Z,23.30
2018-09-28T01:30:26.872Z,23.53
2018-09-28T01:32:55.293Z,22.20
2018-09-28T01:35:23.689Z,19.70
2018-09-28T01:37:52.060Z,22.00
2018-09-28T01:40:20.713Z,20.90
2018-09-28T01:42:49.098Z,22.90
2018-09-28T01:45:17.457Z,25.50
2018-09-28T01:47:45.836Z,27.17
2018-09-28T01:50:14.249Z,27.83
2018-09-28T01:52:42.624Z,27.30
2018-09-28T01:55:11.389Z,26.23
2018-09-28T01:57:39.829Z,23.20
2018-09-28T02:00:08.241Z,23.00
2018-09-28T02:02:36.748Z,21.57
2018-09-28T02:05:05.212Z,20.90
2018-09-28T02:07:33.617Z,21.53
2018-09-28T02:10:02.028Z,21.87
2018-09-28T02:12:30.439Z,20.80
2018-09-28T02:14:58.820Z,22.80
2018-09-28T02:17:27.193Z,23.40
2018-09-28T02:19:55.601Z,27.20
2018-09-28T02:22:24.253Z,25.77
2018-09-28T02:24:52.636Z,25.07
2018-09-28T02:27:21.089Z,25.97
2018-09-28T02:29:49.700Z,23.57
2018-09-28T02:32:18.085Z,20.80
2018-09-28T02:34:46.448Z,25.60
2018-09-28T02:37:14.829Z,22.60
2018-09-28T02:39:43.232Z,22.57
2018-09-28T02:42:11.628Z,26.37
2018-09-28T02:44:40.009Z,21.47
2018-09-28T02:47:08.419Z,23.20
2018-09-28T02:49:36.818Z,24.00
2018-09-28T02:52:05.196Z,23.00
2018-09-28T02:54:33.620Z,23.70
2018-09-28T02:57:02.069Z,20.97
2018-09-28T02:59:30.465Z,22.10
2018-09-28T03:01:58.880Z,21.20
2018-09-28T03:04:27.263Z,22.20
2018-09-28T03:06:55.741Z,21.10
2018-09-28T03:09:24.143Z,19.70
2018-09-28T03:11:52.534Z,21.07
2018-09-28T03:14:21.123Z,25.20
2018-09-28T03:16:49.515Z,24.50
2018-09-28T03:19:17.933Z,21.90
2018-09-28T03:21:46.553Z,21.30
2018-09-28T03:24:14.932Z,25.00
2018-09-28T03:26:43.319Z,23.93
2018-09-28T03:29:11.712Z,23.43
2018-09-28T03:31:40.105Z,22.97
2018-09-28T03:34:08.750Z,23.13
2018-09-28T03:36:37.120Z,26.37
2018-09-28T03:39:07.004Z,25.07
2018-09-28T03:41:35.633Z,22.37
2018-09-28T03:44:04.318Z,22.23
2018-09-28T03:46:32.756Z,21.10
2018-09-28T03:49:01.144Z,22.43
2018-09-28T03:51:29.529Z,22.27
2018-09-28T03:53:58.128Z,21.83
2018-09-28T03:56:27.117Z,26.13
2018-09-28T03:58:56.073Z,25.73
2018-09-28T04:01:24.453Z,26.23
2018-09-28T04:03:52.884Z,25.70
2018-09-28T04:06:21.273Z,29.27
2018-09-28T04:08:50.603Z,25.90
2018-09-28T04:11:19.213Z,25.83
2018-09-28T04:13:47.615Z,22.90
2018-09-28T04:16:15.999Z,25.13
2018-09-28T04:18:44.418Z,23.00
2018-09-28T04:21:12.803Z,23.10
2018-09-28T04:23:41.345Z,24.03
2018-09-28T04:26:09.780Z,23.20
2018-09-28T04:28:38.273Z,24.40
2018-09-28T04:31:06.725Z,23.53
2018-09-28T04:33:35.329Z,21.37
2018-09-28T04:36:03.742Z,20.83
2018-09-28T04:38:32.142Z,21.30
2018-09-28T04:41:00.605Z,26.20
2018-09-28T04:43:29.005Z,28.73
2018-09-28T04:45:57.496Z,29.50
2018-09-28T04:48:25.877Z,29.97
2018-09-28T04:50:54.280Z,34.80
2018-09-28T04:53:22.675Z,27.67
2018-09-28T04:55:51.124Z,22.70
2018-09-28T04:58:19.734Z,23.40
2018-09-28T05:00:48.124Z,22.10
2018-09-28T05:03:16.656Z,26.57
2018-09-28T05:05:45.060Z,27.43
2018-09-28T05:08:13.445Z,37.10
2018-09-28T05:10:41.835Z,42.97
2018-09-28T05:13:10.645Z,41.30
2018-09-28T05:15:39.173Z,39.93
2018-09-28T05:18:07.700Z,38.37
2018-09-28T05:20:36.093Z,44.00
2018-09-28T05:23:04.550Z,41.03
2018-09-28T05:25:32.957Z,40.43
2018-09-28T05:28:01.365Z,42.83
2018-09-28T05:30:29.821Z,44.00
2018-09-28T05:32:58.346Z,41.33
2018-09-28T05:35:26.648Z,42.20
2018-09-28T05:37:55.053Z,40.27
2018-09-28T05:40:23.445Z,42.63
2018-09-28T05:42:51.853Z,43.33
2018-09-28T05:45:20.304Z,42.00
2018-09-28T05:47:49.389Z,43.83
2018-09-28T05:50:17.871Z,43.70
2018-09-28T05:52:46.258Z,43.10
2018-09-28T05:55:14.739Z,44.53
2018-09-28T05:57:43.384Z,42.50
2018-09-28T06:00:17.012Z,43.10
2018-09-28T06:02:50.987Z,43.47
2018-09-28T06:05:24.759Z,44.90
2018-09-28T06:07:53.296Z,46.37
2018-09-28T06:10:21.680Z,45.23
2018-09-28T06:12:50.093Z,44.40
2018-09-28T06:15:18.707Z,43.37
2018-09-28T06:17:47.120Z,44.10
2018-09-28T06:20:15.529Z,44.30
2018-09-28T06:22:43.947Z,45.20
2018-09-28T06:25:12.380Z,44.20
2018-09-28T06:27:40.813Z,45.00
2018-09-28T06:30:09.285Z,47.43
2018-09-28T06:32:39.105Z,49.00
2018-09-28T06:35:07.548Z,47.23
2018-09-28T06:37:36.116Z,49.20
2018-09-28T06:40:04.559Z,48.77
2018-09-28T06:42:33.037Z,51.20
2018-09-28T06:45:01.534Z,48.30
2018-09-28T06:47:30.156Z,52.90
2018-09-28T06:49:58.580Z,55.90
2018-09-28T06:52:27.333Z,56.00
2018-09-28T06:54:55.740Z,55.53
2018-09-28T06:57:24.160Z,56.47
2018-09-28T06:59:52.569Z,56.50
2018-09-28T07:02:21.521Z,53.87
2018-09-28T07:04:49.934Z,55.17
2018-09-28T07:07:18.905Z,55.70
2018-09-28T07:09:47.319Z,52.93
2018-09-28T07:12:16.177Z,54.97
2018-09-28T07:14:44.553Z,50.17
2018-09-28T07:17:12.983Z,50.83
2018-09-28T07:19:41.401Z,48.07
2018-09-28T07:22:09.881Z,48.97
2018-09-28T07:24:38.415Z,49.40
2018-09-28T07:27:06.793Z,49.03
2018-09-28T07:29:35.361Z,48.40
2018-09-28T07:32:03.753Z,48.13
2018-09-28T07:34:32.128Z,49.30
2018-09-28T07:37:00.627Z,46.37
2018-09-28T07:39:28.961Z,44.60
2018-09-28T07:41:57.417Z,43.67
2018-09-28T07:44:25.756Z,41.53
2018-09-28T07:46:54.200Z,41.43
2018-09-28T07:49:22.732Z,37.80
2018-09-28T07:51:51.145Z,35.70
2018-09-28T07:54:19.580Z,32.90
2018-09-28T07:56:48.000Z,27.60
2018-09-28T07:59:16.398Z,26.23
2018-09-28T08:01:44.904Z,21.07
2018-09-28T08:04:13.405Z,20.60
2018-09-28T08:06:42.160Z,19.23
2018-09-28T08:09:11.436Z,17.27
2018-09-28T08:11:39.838Z,16.20
2018-09-28T08:14:08.918Z,14.30
2018-09-28T08:16:37.700Z,14.13
2018-09-28T08:19:06.613Z,14.50
2018-09-28T08:21:35.263Z,13.63
2018-09-28T08:24:03.728Z,13.53
2018-09-28T08:26:32.261Z,11.97
2018-09-28T08:29:00.676Z,11.10
2018-09-28T08:31:29.080Z,11.60
2018-09-28T08:33:57.492Z,11.97
2018-09-28T08:36:25.917Z,10.87
2018-09-28T08:38:54.316Z,10.37
2018-09-28T08:41:22.736Z,10.57
2018-09-28T08:43:51.201Z,10.33
2018-09-28T08:46:20.170Z,10.10
2018-09-28T08:48:49.161Z,9.73
2018-09-28T08:51:17.557Z,9.30
2018-09-28T08:53:46.080Z,9.00
2018-09-28T08:56:14.489Z,9.53
2018-09-28T08:58:42.904Z,9.50
2018-09-28T09:01:11.305Z,8.30
2018-09-28T09:03:39.811Z,7.93
2018-09-28T09:06:08.236Z,7.90
2018-09-28T09:08:36.623Z,7.53
2018-09-28T09:11:05.316Z,7.40
2018-09-28T09:13:33.696Z,6.33
2018-09-28T09:16:02.095Z,7.23
2018-09-28T09:18:30.520Z,6.20
2018-09-28T09:20:59.324Z,6.60
2018-09-28T09:23:28.647Z,5.30
2018-09-28T09:25:57.080Z,5.07
2018-09-28T09:28:25.705Z,4.63
2018-09-28T09:30:54.092Z,5.00
2018-09-28T09:33:22.489Z,4.70
2018-09-28T09:35:50.917Z,6.00
2018-09-28T09:38:19.296Z,5.00
2018-09-28T09:40:47.739Z,3.80
2018-09-28T09:43:16.181Z,3.50
2018-09-28T09:45:44.633Z,2.97
2018-09-28T09:48:13.044Z,3.20
2018-09-28T09:50:41.438Z,3.07
2018-09-28T09:53:09.829Z,3.87
2018-09-28T09:55:38.426Z,3.10
2018-09-28T09:58:07.033Z,2.97
2018-09-28T10:00:40.756Z,3.77
2018-09-28T10:03:14.408Z,2.93
2018-09-28T10:05:43.041Z,3.23
2018-09-28T10:08:11.494Z,3.50
2018-09-28T10:10:39.956Z,3.67
2018-09-28T10:13:08.372Z,4.47
2018-09-28T10:15:36.776Z,3.00
2018-09-28T10:18:05.438Z,4.00
2018-09-28T10:20:33.840Z,3.27
2018-09-28T10:23:02.264Z,3.60
2018-09-28T10:25:30.655Z,4.13
2018-09-28T10:27:59.584Z,3.17
2018-09-28T10:30:27.971Z,2.87
2018-09-28T10:32:56.357Z,2.80
2018-09-28T10:35:24.884Z,3.40
2018-09-28T10:37:53.489Z,2.97
2018-09-28T10:40:21.967Z,2.90
2018-09-28T10:42:50.305Z,3.77
2018-09-28T10:45:18.800Z,2.40
2018-09-28T10:47:47.173Z,3.43
2018-09-28T10:50:15.781Z,3.23
2018-09-28T10:52:44.233Z,3.17
2018-09-28T10:55:12.581Z,2.77
2018-09-28T10:57:41.017Z,3.10
2018-09-28T11:00:09.445Z,2.93
2018-09-28T11:02:37.854Z,4.27
2018-09-28T11:05:06.345Z,3.60
2018-09-28T11:07:34.737Z,3.70
2018-09-28T11:10:03.195Z,2.50
2018-09-28T11:12:31.629Z,3.57
2018-09-28T11:15:00.174Z,3.30
2018-09-28T11:17:28.568Z,3.27
2018-09-28T11:19:56.968Z,3.27
2018-09-28T11:22:25.462Z,3.70
2018-09-28T11:24:53.870Z,4.30
2018-09-28T11:27:22.377Z,3.67
2018-09-28T11:29:51.069Z,3.67
2018-09-28T11:32:19.474Z,3.40
2018-09-28T11:34:47.849Z,4.20
2018-09-28T11:37:16.305Z,3.60
2018-09-28T11:39:44.756Z,3.57
2018-09-28T11:42:13.176Z,4.63
2018-09-28T11:44:41.743Z,3.93
2018-09-28T11:47:10.169Z,4.13
2018-09-28T11:49:38.576Z,5.07
2018-09-28T11:52:07.176Z,3.67
2018-09-28T11:54:35.598Z,3.20
2018-09-28T11:57:04.020Z,3.47
2018-09-28T11:59:32.460Z,3.80
2018-09-28T12:02:00.852Z,3.23
2018-09-28T12:04:29.568Z,3.03
2018-09-28T12:06:58.077Z,3.17
2018-09-28T12:09:26.454Z,3.50
2018-09-28T12:11:55.121Z,3.10
2018-09-28T12:14:23.533Z,2.90
2018-09-28T12:16:51.954Z,3.30
2018-09-28T12:19:21.152Z,3.40
2018-09-28T12:21:49.877Z,2.83
2018-09-28T12:24:18.319Z,3.10
2018-09-28T12:26:46.809Z,8.53
2018-09-28T12:29:15.205Z,4.53
2018-09-28T12:31:43.612Z,5.13
2018-09-28T12:34:12.256Z,3.90
2018-09-28T12:36:40.719Z,3.27
2018-09-28T12:39:11.130Z,3.30
2018-09-28T12:41:39.460Z,3.43
2018-09-28T12:44:08.051Z,3.20
2018-09-28T12:46:36.453Z,2.73
2018-09-28T12:49:04.911Z,2.93
2018-09-28T12:51:33.313Z,3.07
2018-09-28T12:54:02.091Z,2.93
2018-09-28T12:56:30.502Z,2.97
2018-09-28T12:58:58.925Z,3.10
2018-09-28T13:01:27.584Z,2.63
2018-09-28T13:03:55.997Z,3.30
2018-09-28T13:06:24.552Z,3.00
2018-09-28T13:08:53.341Z,2.33
2018-09-28T13:11:21.792Z,3.30
2018-09-28T13:13:50.250Z,2.60
2018-09-28T13:16:19.124Z,2.37
2018-09-28T13:18:47.571Z,2.70
2018-09-28T13:21:16.021Z,3.10
2018-09-28T13:23:44.549Z,2.77
2018-09-28T13:26:12.969Z,2.90
2018-09-28T13:28:41.696Z,2.60
2018-09-28T13:31:10.201Z,2.93
2018-09-28T13:33:38.820Z,2.93
2018-09-28T13:36:07.488Z,2.20
2018-09-28T13:38:35.979Z,2.80
2018-09-28T13:41:05.188Z,2.60
2018-09-28T13:43:33.660Z,2.10
2018-09-28T13:46:02.122Z,2.60
2018-09-28T13:48:30.519Z,3.00
2018-09-28T13:50:59.173Z,2.80
2018-09-28T13:53:27.696Z,2.50
2018-09-28T13:55:56.207Z,2.50
2018-09-28T13:58:24.768Z,2.70
2018-09-28T14:00:53.080Z,2.97
2018-09-28T14:03:21.536Z,3.00
2018-09-28T14:05:50.178Z,2.07
2018-09-28T14:08:18.634Z,2.10
2018-09-28T14:10:47.030Z,2.07
2018-09-28T14:13:15.709Z,2.40
2018-09-28T14:15:44.148Z,3.03
2018-09-28T14:18:12.895Z,2.67
2018-09-28T14:20:41.582Z,2.27
2018-09-28T14:23:10.012Z,2.37
2018-09-28T14:25:38.466Z,1.83
2018-09-28T14:28:07.348Z,2.43
2018-09-28T14:30:35.823Z,1.97
2018-09-28T14:33:04.228Z,2.00
2018-09-28T14:35:32.726Z,1.77
2018-09-28T14:38:01.164Z,2.00
2018-09-28T14:40:29.635Z,2.57
2018-09-28T14:42:58.077Z,1.73
2018-09-28T14:45:26.484Z,1.93
2018-09-28T14:47:54.870Z,1.77
2018-09-28T14:50:23.440Z,1.43
2018-09-28T14:52:51.862Z,1.53
2018-09-28T14:55:20.245Z,1.67
2018-09-28T14:57:48.622Z,2.30
2018-09-28T15:00:17.140Z,2.00
2018-09-28T15:02:45.622Z,2.13
2018-09-28T15:05:14.476Z,2.50
2018-09-28T15:07:42.894Z,2.37
2018-09-28T15:10:11.333Z,2.13
2018-09-28T15:12:39.828Z,2.27
2018-09-28T15:15:08.406Z,2.00
2018-09-28T15:17:37.039Z,2.77
2018-09-28T15:20:05.860Z,2.20
2018-09-28T15:22:34.453Z,3.70
2018-09-28T15:25:02.884Z,3.30
2018-09-28T15:27:31.416Z,4.60
2018-09-28T15:29:59.828Z,2.73
2018-09-28T15:32:28.242Z,1.83
2018-09-28T15:34:56.670Z,2.33
2018-09-28T15:37:25.084Z,2.10
2018-09-28T15:39:53.585Z,2.03
2018-09-28T15:42:22.092Z,2.90
2018-09-28T15:44:50.736Z,2.30
2018-09-28T15:47:19.149Z,2.63
2018-09-28T15:49:47.585Z,1.97
2018-09-28T15:52:15.988Z,2.10
2018-09-28T15:54:44.408Z,2.07
2018-09-28T15:57:12.825Z,2.10
2018-09-28T15:59:41.330Z,1.90
2018-09-28T16:02:09.787Z,1.80
2018-09-28T16:04:38.199Z,2.00
2018-09-28T16:07:07.088Z,2.60
2018-09-28T16:09:35.522Z,2.70
2018-09-28T16:12:04.077Z,2.13
2018-09-28T16:14:32.523Z,2.07
2018-09-28T16:17:01.044Z,1.70
2018-09-28T16:19:29.508Z,1.60
2018-09-28T16:21:57.897Z,1.80
2018-09-28T16:24:26.539Z,2.23
2018-09-28T16:26:54.949Z,2.30
2018-09-28T16:29:23.367Z,2.00
2018-09-28T16:31:51.805Z,2.30
2018-09-28T16:34:20.653Z,2.40
2018-09-28T16:36:49.108Z,2.50
2018-09-28T16:39:17.614Z,1.70
2018-09-28T16:41:46.084Z,1.47
2018-09-28T16:44:14.493Z,1.90
2018-09-28T16:46:42.877Z,1.87
2018-09-28T16:49:11.275Z,2.43
2018-09-28T16:51:39.848Z,2.10
2018-09-28T16:54:08.226Z,1.90
2018-09-28T16:56:36.612Z,1.63
2018-09-28T16:59:05.073Z,1.80
2018-09-28T17:01:33.465Z,2.60
2018-09-28T17:04:02.148Z,2.43
2018-09-28T17:06:30.606Z,2.30
2018-09-28T17:08:59.032Z,2.10
2018-09-28T17:11:27.456Z,2.23
2018-09-28T17:13:55.933Z,2.73
2018-09-28T17:16:24.485Z,2.33
2018-09-28T17:18:53.029Z,2.20
2018-09-28T17:21:21.431Z,2.70
2018-09-28T17:23:49.945Z,2.17
2018-09-28T17:26:18.362Z,2.20
2018-09-28T17:28:46.791Z,1.80
2018-09-28T17:31:15.205Z,2.43
2018-09-28T17:33:43.601Z,2.90
2018-09-28T17:36:12.020Z,2.07
2018-09-28T17:38:40.865Z,2.20
2018-09-28T17:41:09.323Z,1.60
2018-09-28T17:43:37.745Z,2.20
2018-09-28T17:46:06.492Z,2.40
2018-09-28T17:48:34.889Z,2.10
2018-09-28T17:51:03.459Z,2.10
2018-09-28T17:53:32.053Z,1.80
2018-09-28T17:56:00.480Z,1.67
2018-09-28T17:58:28.977Z,2.83
2018-09-28T18:00:57.581Z,2.23
2018-09-28T18:03:26.026Z,2.13
2018-09-28T18:05:54.449Z,2.00
2018-09-28T18:08:22.968Z,2.70
2018-09-28T18:10:51.476Z,1.57
2018-09-28T18:13:19.895Z,1.97
2018-09-28T18:15:48.885Z,2.37
2018-09-28T18:18:17.344Z,2.50
2018-09-28T18:20:46.033Z,2.13
2018-09-28T18:23:14.480Z,2.30
2018-09-28T18:25:43.107Z,2.10
2018-09-28T18:28:11.566Z,3.50
2018-09-28T18:30:40.076Z,2.17
2018-09-28T18:33:08.773Z,1.80
2018-09-28T18:35:37.195Z,2.43
2018-09-28T18:38:05.607Z,2.07
2018-09-28T18:40:34.207Z,2.40
2018-09-28T18:43:02.616Z,1.80
2018-09-28T18:45:31.049Z,1.97
2018-09-28T18:47:59.653Z,2.10
2018-09-28T18:50:28.160Z,2.13
2018-09-28T18:52:56.606Z,2.40
2018-09-28T18:55:25.497Z,1.90
2018-09-28T18:57:54.089Z,2.00
2018-09-28T19:00:22.645Z,2.60
2018-09-28T19:02:51.337Z,2.20
2018-09-28T19:05:19.774Z,2.33
2018-09-28T19:07:48.205Z,1.67
2018-09-28T19:10:16.668Z,2.23
2018-09-28T19:12:45.292Z,1.93
2018-09-28T19:15:13.754Z,2.17
2018-09-28T19:17:42.220Z,2.10
2018-09-28T19:20:10.714Z,1.67
2018-09-28T19:22:39.173Z,2.77
2018-09-28T19:25:07.613Z,2.10
2018-09-28T19:27:36.080Z,2.40
2018-09-28T19:30:04.829Z,2.20
2018-09-28T19:32:33.469Z,2.30
2018-09-28T19:35:01.906Z,1.83
2018-09-28T19:37:30.585Z,2.60
2018-09-28T19:39:59.124Z,2.67
2018-09-28T19:42:27.538Z,2.67
2018-09-28T19:44:55.971Z,2.20
2018-09-28T19:47:24.676Z,2.43
2018-09-28T19:49:53.088Z,2.20
2018-09-28T19:52:21.553Z,2.60
2018-09-28T19:54:50.240Z,2.53
2018-09-28T19:57:18.656Z,2.73
2018-09-28T19:59:47.168Z,2.53
2018-09-28T20:02:15.636Z,2.93
2018-09-28T20:04:44.057Z,3.00
2018-09-28T20:07:12.741Z,2.43
2018-09-28T20:09:41.191Z,2.93
2018-09-28T20:12:09.607Z,2.80
2018-09-28T20:14:38.048Z,2.00
2018-09-28T20:17:07.053Z,3.13
2018-09-28T20:19:35.490Z,3.57
2018-09-28T20:22:04.480Z,5.30
2018-09-28T20:24:32.923Z,8.90
2018-09-28T20:27:01.364Z,13.73
2018-09-28T20:29:29.817Z,12.07
2018-09-28T20:31:58.256Z,13.37
2018-09-28T20:34:26.696Z,12.47
2018-09-28T20:36:56.128Z,11.03
2018-09-28T20:39:24.617Z,5.00
2018-09-28T20:41:53.049Z,3.20
2018-09-28T20:44:21.463Z,2.90
2018-09-28T20:46:49.890Z,2.90
2018-09-28T20:49:18.408Z,2.40
2018-09-28T20:51:46.838Z,2.97
2018-09-28T20:54:15.200Z,2.50
2018-09-28T20:56:43.664Z,2.53
2018-09-28T20:59:14.395Z,3.07
2018-09-28T21:01:43.005Z,2.33
2018-09-28T21:04:11.453Z,3.20
2018-09-28T21:06:39.857Z,2.50
2018-09-28T21:09:09.701Z,2.70
2018-09-28T21:11:38.088Z,3.03
2018-09-28T21:14:06.753Z,2.40
2018-09-28T21:16:35.525Z,2.30
2018-09-28T21:19:04.045Z,1.90
2018-09-28T21:21:32.510Z,2.90
2018-09-28T21:24:01.056Z,3.20
2018-09-28T21:26:29.464Z,2.87
2018-09-28T21:28:58.687Z,1.93
2018-09-28T21:31:27.093Z,2.70
2018-09-28T21:33:55.480Z,3.40
2018-09-28T21:36:23.945Z,2.47
2018-09-28T21:38:52.417Z,2.77
2018-09-28T21:41:20.816Z,2.37
2018-09-28T21:43:49.421Z,2.43
2018-09-28T21:46:17.832Z,2.83
2018-09-28T21:48:46.224Z,2.43
2018-09-28T21:51:14.677Z,2.03
2018-09-28T21:53:43.229Z,3.27
2018-09-28T21:56:11.690Z,2.63
2018-09-28T21:58:40.119Z,2.80
2018-09-28T22:01:08.580Z,1.97
2018-09-28T22:03:37.028Z,2.40
2018-09-28T22:06:05.427Z,2.70
2018-09-28T22:08:33.943Z,2.30
2018-09-28T22:11:02.328Z,3.00
2018-09-28T22:13:30.747Z,3.50
2018-09-28T22:15:59.142Z,2.90
2018-09-28T22:18:27.549Z,2.33
2018-09-28T22:20:56.053Z,2.10
2018-09-28T22:23:24.441Z,2.60
2018-09-28T22:25:53.559Z,2.63
2018-09-28T22:28:21.940Z,2.40
2018-09-28T22:30:50.900Z,2.20
2018-09-28T22:33:19.288Z,2.50
2018-09-28T22:35:47.685Z,2.80
2018-09-28T22:38:16.184Z,2.53
2018-09-28T22:40:44.585Z,2.07
2018-09-28T22:43:13.001Z,2.97
2018-09-28T22:45:41.417Z,3.13
2018-09-28T22:48:09.832Z,2.50
2018-09-28T22:50:38.355Z,2.87
2018-09-28T22:53:07.296Z,2.50
2018-09-28T22:55:35.684Z,2.60
2018-09-28T22:58:04.100Z,2.13
2018-09-28T23:00:32.677Z,2.27
2018-09-28T23:03:01.047Z,2.77
2018-09-28T23:05:29.438Z,2.40
2018-09-28T23:07:57.929Z,2.27
2018-09-28T23:10:26.324Z,2.57
2018-09-28T23:12:54.810Z,2.93
2018-09-28T23:15:23.218Z,2.40
2018-09-28T23:17:51.736Z,2.77
2018-09-28T23:20:20.192Z,2.80
2018-09-28T23:22:48.576Z,2.20
2018-09-28T23:25:16.957Z,2.50
2018-09-28T23:27:45.690Z,3.50
2018-09-28T23:30:14.107Z,2.77
2018-09-28T23:32:42.477Z,3.03
2018-09-28T23:35:11.134Z,2.87
2018-09-28T23:37:39.492Z,2.90
2018-09-28T23:40:07.957Z,5.23
2018-09-28T23:42:36.577Z,10.87
2018-09-28T23:45:05.208Z,15.73
2018-09-28T23:47:33.651Z,10.90
2018-09-28T23:50:02.006Z,7.93
2018-09-28T23:52:30.392Z,9.40
2018-09-28T23:54:59.041Z,12.87
2018-09-28T23:57:27.420Z,11.17
2018-09-28T23:59:55.818Z,12.20
